sensor_id;sensor_type;location;lat;lon;timestamp;pressure;altitude;pressure_sealevel;temperature;humidity
4981;BME280;2507;50.392;7.482;2023-04-22T00:00:40;100095.06;;;11.54;81.56
4981;BME280;2507;50.392;7.482;2023-04-22T00:03:06;100094.78;;;11.68;80.96
4981;BME280;2507;50.392;7.482;2023-04-22T00:05:32;100086.34;;;11.65;80.83
4981;BME280;2507;50.392;7.482;2023-04-22T00:07:58;100080.16;;;11.75;80.68
4981;BME280;2507;50.392;7.482;2023-04-22T00:10:23;100081.06;;;11.85;80.43
4981;BME280;2507;50.392;7.482;2023-04-22T00:12:48;100079.13;;;11.87;80.33
4981;BME280;2507;50.392;7.482;2023-04-22T00:15:13;100084.16;;;11.90;80.14
4981;BME280;2507;50.392;7.482;2023-04-22T00:17:39;100089.97;;;11.94;79.79
4981;BME280;2507;50.392;7.482;2023-04-22T00:20:05;100086.13;;;11.98;79.87
4981;BME280;2507;50.392;7.482;2023-04-22T00:22:31;100085.59;;;12.04;79.95
4981;BME280;2507;50.392;7.482;2023-04-22T00:24:57;100085.44;;;12.05;79.63
4981;BME280;2507;50.392;7.482;2023-04-22T00:27:22;100085.91;;;12.10;79.27
4981;BME280;2507;50.392;7.482;2023-04-22T00:29:47;100089.75;;;12.06;79.20
4981;BME280;2507;50.392;7.482;2023-04-22T00:32:12;100079.81;;;12.10;79.33
4981;BME280;2507;50.392;7.482;2023-04-22T00:34:38;100081.59;;;12.09;80.02
4981;BME280;2507;50.392;7.482;2023-04-22T00:37:03;100087.91;;;12.18;78.11
4981;BME280;2507;50.392;7.482;2023-04-22T00:39:28;100093.34;;;12.05;77.16
4981;BME280;2507;50.392;7.482;2023-04-22T00:41:54;100087.16;;;11.86;76.91
4981;BME280;2507;50.392;7.482;2023-04-22T00:44:19;100087.44;;;11.51;78.63
4981;BME280;2507;50.392;7.482;2023-04-22T00:46:47;100082.50;;;11.37;79.67
4981;BME280;2507;50.392;7.482;2023-04-22T00:49:13;100087.78;;;11.26;80.76
4981;BME280;2507;50.392;7.482;2023-04-22T00:51:39;100084.81;;;11.30;81.59
4981;BME280;2507;50.392;7.482;2023-04-22T00:54:04;100088.81;;;11.34;81.97
4981;BME280;2507;50.392;7.482;2023-04-22T00:56:30;100090.78;;;11.53;81.40
4981;BME280;2507;50.392;7.482;2023-04-22T00:58:58;100089.25;;;11.51;80.93
4981;BME280;2507;50.392;7.482;2023-04-22T01:01:23;100088.66;;;11.47;80.97
4981;BME280;2507;50.392;7.482;2023-04-22T01:03:49;100110.00;;;11.54;80.99
4981;BME280;2507;50.392;7.482;2023-04-22T01:06:18;100103.91;;;11.53;80.60
4981;BME280;2507;50.392;7.482;2023-04-22T01:08:43;100093.25;;;11.55;81.27
4981;BME280;2507;50.392;7.482;2023-04-22T01:11:09;100087.63;;;11.59;81.23
4981;BME280;2507;50.392;7.482;2023-04-22T01:13:34;100086.06;;;11.88;80.70
4981;BME280;2507;50.392;7.482;2023-04-22T01:16:03;100089.47;;;12.00;79.46
4981;BME280;2507;50.392;7.482;2023-04-22T01:18:30;100074.81;;;12.07;79.11
4981;BME280;2507;50.392;7.482;2023-04-22T01:20:56;100077.63;;;12.15;78.98
4981;BME280;2507;50.392;7.482;2023-04-22T01:23:22;100073.25;;;12.25;78.38
4981;BME280;2507;50.392;7.482;2023-04-22T01:25:48;100073.94;;;12.27;78.06
4981;BME280;2507;50.392;7.482;2023-04-22T01:28:15;100060.53;;;12.30;78.00
4981;BME280;2507;50.392;7.482;2023-04-22T01:30:41;100065.66;;;12.31;77.21
4981;BME280;2507;50.392;7.482;2023-04-22T01:33:08;100073.38;;;12.23;77.96
4981;BME280;2507;50.392;7.482;2023-04-22T01:35:34;100081.28;;;12.23;78.65
4981;BME280;2507;50.392;7.482;2023-04-22T01:38:06;100072.44;;;12.34;78.05
4981;BME280;2507;50.392;7.482;2023-04-22T01:40:32;100068.22;;;12.22;78.41
4981;BME280;2507;50.392;7.482;2023-04-22T01:42:58;100077.28;;;12.29;78.67
4981;BME280;2507;50.392;7.482;2023-04-22T01:45:25;100070.53;;;12.36;77.71
4981;BME280;2507;50.392;7.482;2023-04-22T01:47:50;100074.66;;;12.39;78.17
4981;BME280;2507;50.392;7.482;2023-04-22T01:50:15;100061.66;;;12.37;78.01
4981;BME280;2507;50.392;7.482;2023-04-22T01:52:41;100064.91;;;12.60;77.06
4981;BME280;2507;50.392;7.482;2023-04-22T01:55:07;100062.19;;;12.31;77.48
4981;BME280;2507;50.392;7.482;2023-04-22T01:57:32;100061.03;;;12.24;78.15
4981;BME280;2507;50.392;7.482;2023-04-22T01:59:58;100058.28;;;12.25;78.41
4981;BME280;2507;50.392;7.482;2023-04-22T02:02:23;100051.38;;;12.24;78.69
4981;BME280;2507;50.392;7.482;2023-04-22T02:04:48;100054.38;;;12.20;78.73
4981;BME280;2507;50.392;7.482;2023-04-22T02:07:13;100057.97;;;12.19;78.99
4981;BME280;2507;50.392;7.482;2023-04-22T02:09:39;100057.97;;;12.19;79.16
4981;BME280;2507;50.392;7.482;2023-04-22T02:12:04;100060.84;;;12.06;79.82
4981;BME280;2507;50.392;7.482;2023-04-22T02:14:29;100057.63;;;12.03;80.47
4981;BME280;2507;50.392;7.482;2023-04-22T02:16:55;100048.47;;;11.97;80.96
4981;BME280;2507;50.392;7.482;2023-04-22T02:19:20;100057.72;;;11.92;81.51
4981;BME280;2507;50.392;7.482;2023-04-22T02:21:45;100053.09;;;12.05;81.05
4981;BME280;2507;50.392;7.482;2023-04-22T02:24:11;100063.91;;;12.11;80.39
4981;BME280;2507;50.392;7.482;2023-04-22T02:26:36;100053.50;;;12.10;80.77
4981;BME280;2507;50.392;7.482;2023-04-22T02:29:01;100047.88;;;12.14;80.42
4981;BME280;2507;50.392;7.482;2023-04-22T02:31:27;100050.38;;;12.16;80.17
4981;BME280;2507;50.392;7.482;2023-04-22T02:33:52;100053.47;;;12.30;79.35
4981;BME280;2507;50.392;7.482;2023-04-22T02:36:17;100049.47;;;12.06;79.56
4981;BME280;2507;50.392;7.482;2023-04-22T02:38:42;100054.00;;;11.94;80.59
4981;BME280;2507;50.392;7.482;2023-04-22T02:41:08;100049.91;;;11.81;81.22
4981;BME280;2507;50.392;7.482;2023-04-22T02:43:33;100049.81;;;11.92;81.08
4981;BME280;2507;50.392;7.482;2023-04-22T02:45:58;100055.09;;;11.92;80.96
4981;BME280;2507;50.392;7.482;2023-04-22T02:48:23;100058.31;;;11.75;81.50
4981;BME280;2507;50.392;7.482;2023-04-22T02:50:49;100054.31;;;11.80;81.67
4981;BME280;2507;50.392;7.482;2023-04-22T02:53:14;100062.72;;;11.95;80.86
4981;BME280;2507;50.392;7.482;2023-04-22T02:55:40;100061.50;;;11.99;80.72
4981;BME280;2507;50.392;7.482;2023-04-22T02:58:06;100066.47;;;12.02;80.38
4981;BME280;2507;50.392;7.482;2023-04-22T03:00:33;100062.06;;;12.02;80.01
4981;BME280;2507;50.392;7.482;2023-04-22T03:02:58;100059.13;;;11.75;80.88
4981;BME280;2507;50.392;7.482;2023-04-22T03:05:23;100061.78;;;11.75;81.01
4981;BME280;2507;50.392;7.482;2023-04-22T03:07:49;100057.16;;;11.88;81.06
4981;BME280;2507;50.392;7.482;2023-04-22T03:10:14;100061.91;;;12.04;81.01
4981;BME280;2507;50.392;7.482;2023-04-22T03:12:40;100058.50;;;12.13;78.77
4981;BME280;2507;50.392;7.482;2023-04-22T03:15:06;100061.09;;;12.03;79.88
4981;BME280;2507;50.392;7.482;2023-04-22T03:17:31;100063.53;;;12.16;79.61
4981;BME280;2507;50.392;7.482;2023-04-22T03:19:56;100065.66;;;12.31;78.25
4981;BME280;2507;50.392;7.482;2023-04-22T03:22:21;100067.88;;;12.06;78.80
4981;BME280;2507;50.392;7.482;2023-04-22T03:24:47;100066.38;;;12.13;79.65
4981;BME280;2507;50.392;7.482;2023-04-22T03:27:12;100075.69;;;12.17;79.42
4981;BME280;2507;50.392;7.482;2023-04-22T03:29:38;100074.66;;;12.29;79.10
4981;BME280;2507;50.392;7.482;2023-04-22T03:32:03;100068.72;;;12.06;79.01
4981;BME280;2507;50.392;7.482;2023-04-22T03:34:28;100060.75;;;12.17;79.99
4981;BME280;2507;50.392;7.482;2023-04-22T03:36:53;100067.44;;;12.31;78.70
4981;BME280;2507;50.392;7.482;2023-04-22T03:39:19;100069.22;;;12.21;78.38
4981;BME280;2507;50.392;7.482;2023-04-22T03:41:45;100065.88;;;12.19;79.28
4981;BME280;2507;50.392;7.482;2023-04-22T03:44:10;100063.75;;;12.13;79.03
4981;BME280;2507;50.392;7.482;2023-04-22T03:46:35;100065.97;;;12.08;80.07
4981;BME280;2507;50.392;7.482;2023-04-22T03:49:00;100060.56;;;12.09;80.16
4981;BME280;2507;50.392;7.482;2023-04-22T03:51:26;100057.63;;;12.03;80.35
4981;BME280;2507;50.392;7.482;2023-04-22T03:53:51;100058.72;;;12.00;80.71
4981;BME280;2507;50.392;7.482;2023-04-22T03:56:16;100047.97;;;12.03;80.57
4981;BME280;2507;50.392;7.482;2023-04-22T03:58:42;100046.50;;;11.90;80.70
4981;BME280;2507;50.392;7.482;2023-04-22T04:01:08;100047.72;;;11.86;81.16
4981;BME280;2507;50.392;7.482;2023-04-22T04:03:33;100044.84;;;11.89;81.17
4981;BME280;2507;50.392;7.482;2023-04-22T04:05:58;100043.34;;;11.96;81.10
4981;BME280;2507;50.392;7.482;2023-04-22T04:08:23;100041.81;;;11.93;80.85
4981;BME280;2507;50.392;7.482;2023-04-22T04:10:49;100040.28;;;11.91;80.81
4981;BME280;2507;50.392;7.482;2023-04-22T04:13:14;100035.28;;;11.88;80.70
4981;BME280;2507;50.392;7.482;2023-04-22T04:15:39;100030.84;;;11.88;80.84
4981;BME280;2507;50.392;7.482;2023-04-22T04:18:05;100034.56;;;11.86;81.16
4981;BME280;2507;50.392;7.482;2023-04-22T04:20:30;100027.81;;;11.93;81.27
4981;BME280;2507;50.392;7.482;2023-04-22T04:22:55;100022.31;;;11.96;80.41
4981;BME280;2507;50.392;7.482;2023-04-22T04:25:21;100018.97;;;11.94;80.51
4981;BME280;2507;50.392;7.482;2023-04-22T04:27:47;100021.88;;;11.91;80.64
4981;BME280;2507;50.392;7.482;2023-04-22T04:30:12;100012.19;;;11.91;80.15
4981;BME280;2507;50.392;7.482;2023-04-22T04:32:39;100009.81;;;11.88;80.59
4981;BME280;2507;50.392;7.482;2023-04-22T04:35:04;100016.31;;;11.84;80.26
4981;BME280;2507;50.392;7.482;2023-04-22T04:37:31;100017.34;;;11.72;80.56
4981;BME280;2507;50.392;7.482;2023-04-22T04:39:56;100015.81;;;11.70;80.95
4981;BME280;2507;50.392;7.482;2023-04-22T04:42:23;100022.91;;;11.79;81.38
4981;BME280;2507;50.392;7.482;2023-04-22T04:44:49;100005.34;;;11.79;81.14
4981;BME280;2507;50.392;7.482;2023-04-22T04:47:15;100008.28;;;11.86;80.95
4981;BME280;2507;50.392;7.482;2023-04-22T04:49:40;100014.94;;;11.90;81.06
4981;BME280;2507;50.392;7.482;2023-04-22T04:52:06;100034.97;;;11.81;81.40
4981;BME280;2507;50.392;7.482;2023-04-22T04:54:34;100021.00;;;11.81;82.19
4981;BME280;2507;50.392;7.482;2023-04-22T04:56:59;100015.38;;;11.95;81.92
4981;BME280;2507;50.392;7.482;2023-04-22T04:59:26;100021.53;;;12.05;81.64
4981;BME280;2507;50.392;7.482;2023-04-22T05:01:51;100020.97;;;12.11;81.25
4981;BME280;2507;50.392;7.482;2023-04-22T05:04:16;100028.47;;;12.15;81.06
4981;BME280;2507;50.392;7.482;2023-04-22T05:06:41;100032.66;;;12.18;81.21
4981;BME280;2507;50.392;7.482;2023-04-22T05:09:07;100045.81;;;12.27;81.23
4981;BME280;2507;50.392;7.482;2023-04-22T05:11:32;100043.09;;;12.39;80.79
4981;BME280;2507;50.392;7.482;2023-04-22T05:13:59;100048.13;;;12.51;80.44
4981;BME280;2507;50.392;7.482;2023-04-22T05:16:24;100050.38;;;12.65;79.93
4981;BME280;2507;50.392;7.482;2023-04-22T05:18:50;100053.47;;;12.89;79.71
4981;BME280;2507;50.392;7.482;2023-04-22T05:21:15;100055.97;;;12.81;76.48
4981;BME280;2507;50.392;7.482;2023-04-22T05:23:40;100066.06;;;12.86;75.48
4981;BME280;2507;50.392;7.482;2023-04-22T05:26:06;100071.00;;;13.28;76.58
4981;BME280;2507;50.392;7.482;2023-04-22T05:28:31;100062.59;;;13.90;73.08
4981;BME280;2507;50.392;7.482;2023-04-22T05:30:56;100058.50;;;14.52;71.80
4981;BME280;2507;50.392;7.482;2023-04-22T05:33:22;100041.47;;;14.64;68.85
4981;BME280;2507;50.392;7.482;2023-04-22T05:35:47;100040.31;;;14.49;69.63
4981;BME280;2507;50.392;7.482;2023-04-22T05:38:12;100048.56;;;14.63;68.80
4981;BME280;2507;50.392;7.482;2023-04-22T05:40:37;100049.44;;;14.81;69.15
4981;BME280;2507;50.392;7.482;2023-04-22T05:43:04;100054.13;;;15.22;68.32
4981;BME280;2507;50.392;7.482;2023-04-22T05:45:29;100058.78;;;15.64;66.90
4981;BME280;2507;50.392;7.482;2023-04-22T05:47:55;100036.69;;;15.73;66.06
4981;BME280;2507;50.392;7.482;2023-04-22T05:50:20;100038.63;;;15.88;65.35
4981;BME280;2507;50.392;7.482;2023-04-22T05:52:45;100030.47;;;15.56;64.27
4981;BME280;2507;50.392;7.482;2023-04-22T05:55:10;100033.16;;;15.03;66.48
4981;BME280;2507;50.392;7.482;2023-04-22T05:57:36;100037.50;;;14.77;68.07
4981;BME280;2507;50.392;7.482;2023-04-22T06:00:03;100035.38;;;14.98;68.58
4981;BME280;2507;50.392;7.482;2023-04-22T06:02:28;100044.69;;;15.38;67.58
4981;BME280;2507;50.392;7.482;2023-04-22T06:04:53;100037.50;;;16.24;67.15
4981;BME280;2507;50.392;7.482;2023-04-22T06:07:19;100041.81;;;17.57;64.16
4981;BME280;2507;50.392;7.482;2023-04-22T06:09:44;100031.41;;;18.65;60.57
4981;BME280;2507;50.392;7.482;2023-04-22T06:12:10;100025.03;;;19.50;57.78
4981;BME280;2507;50.392;7.482;2023-04-22T06:14:35;100026.75;;;20.09;55.15
4981;BME280;2507;50.392;7.482;2023-04-22T06:17:00;100023.53;;;20.58;53.33
4981;BME280;2507;50.392;7.482;2023-04-22T06:19:26;100022.16;;;21.18;52.46
4981;BME280;2507;50.392;7.482;2023-04-22T06:21:51;100000.97;;;22.14;47.82
4981;BME280;2507;50.392;7.482;2023-04-22T06:24:17;100013.44;;;23.02;46.17
4981;BME280;2507;50.392;7.482;2023-04-22T06:26:42;100011.47;;;23.43;43.14
4981;BME280;2507;50.392;7.482;2023-04-22T06:29:08;100006.47;;;23.27;43.79
4981;BME280;2507;50.392;7.482;2023-04-22T06:31:33;100002.25;;;22.72;44.74
4981;BME280;2507;50.392;7.482;2023-04-22T06:33:58;100012.75;;;22.67;45.37
4981;BME280;2507;50.392;7.482;2023-04-22T06:36:24;100003.75;;;22.94;45.23
4981;BME280;2507;50.392;7.482;2023-04-22T06:38:51;100001.03;;;22.81;44.32
4981;BME280;2507;50.392;7.482;2023-04-22T06:41:17;100001.47;;;22.38;45.40
4981;BME280;2507;50.392;7.482;2023-04-22T06:43:42;100011.69;;;21.66;47.61
4981;BME280;2507;50.392;7.482;2023-04-22T06:46:08;100010.91;;;22.27;46.62
4981;BME280;2507;50.392;7.482;2023-04-22T06:48:33;100013.00;;;22.98;44.82
4981;BME280;2507;50.392;7.482;2023-04-22T06:50:59;100022.34;;;23.94;42.87
4981;BME280;2507;50.392;7.482;2023-04-22T06:53:25;100011.06;;;24.49;41.72
4981;BME280;2507;50.392;7.482;2023-04-22T06:55:50;100007.03;;;24.84;40.42
4981;BME280;2507;50.392;7.482;2023-04-22T06:58:17;100009.84;;;24.52;40.94
4981;BME280;2507;50.392;7.482;2023-04-22T07:00:42;100007.97;;;24.52;41.35
4981;BME280;2507;50.392;7.482;2023-04-22T07:03:08;100014.16;;;25.59;39.66
4981;BME280;2507;50.392;7.482;2023-04-22T07:05:33;100007.03;;;26.68;37.25
4981;BME280;2507;50.392;7.482;2023-04-22T07:07:58;100010.28;;;27.71;36.15
4981;BME280;2507;50.392;7.482;2023-04-22T07:10:24;100013.03;;;28.34;34.79
4981;BME280;2507;50.392;7.482;2023-04-22T07:12:49;100014.97;;;29.01;33.35
4981;BME280;2507;50.392;7.482;2023-04-22T07:15:14;100010.09;;;28.86;33.66
4981;BME280;2507;50.392;7.482;2023-04-22T07:17:40;100004.31;;;28.03;35.13
4981;BME280;2507;50.392;7.482;2023-04-22T07:20:05;100002.53;;;29.00;33.69
4981;BME280;2507;50.392;7.482;2023-04-22T07:22:31;99994.06;;;27.82;35.10
4981;BME280;2507;50.392;7.482;2023-04-22T07:24:56;99996.75;;;27.36;35.74
4981;BME280;2507;50.392;7.482;2023-04-22T07:27:21;99991.97;;;27.08;36.12
4981;BME280;2507;50.392;7.482;2023-04-22T07:29:47;99994.78;;;27.66;35.88
4981;BME280;2507;50.392;7.482;2023-04-22T07:32:12;99989.66;;;28.39;34.04
4981;BME280;2507;50.392;7.482;2023-04-22T07:34:37;99978.34;;;27.68;35.28
4981;BME280;2507;50.392;7.482;2023-04-22T07:37:02;99981.72;;;28.21;34.38
4981;BME280;2507;50.392;7.482;2023-04-22T07:39:29;99975.00;;;28.75;34.26
4981;BME280;2507;50.392;7.482;2023-04-22T07:41:54;99973.06;;;29.32;33.50
4981;BME280;2507;50.392;7.482;2023-04-22T07:44:21;99984.63;;;29.60;33.30
4981;BME280;2507;50.392;7.482;2023-04-22T07:46:47;99967.00;;;29.41;33.24
4981;BME280;2507;50.392;7.482;2023-04-22T07:49:13;99966.22;;;29.95;31.85
4981;BME280;2507;50.392;7.482;2023-04-22T07:51:39;99971.44;;;30.02;32.07
4981;BME280;2507;50.392;7.482;2023-04-22T07:54:05;99972.97;;;30.53;30.93
4981;BME280;2507;50.392;7.482;2023-04-22T07:56:31;99963.72;;;30.27;31.79
4981;BME280;2507;50.392;7.482;2023-04-22T07:58:56;99961.72;;;30.23;32.10
4981;BME280;2507;50.392;7.482;2023-04-22T08:01:21;99965.34;;;29.07;32.47
4981;BME280;2507;50.392;7.482;2023-04-22T08:03:46;99967.13;;;28.73;34.01
4981;BME280;2507;50.392;7.482;2023-04-22T08:06:12;99950.19;;;28.10;35.42
4981;BME280;2507;50.392;7.482;2023-04-22T08:08:37;99952.78;;;27.36;37.09
4981;BME280;2507;50.392;7.482;2023-04-22T08:11:02;99951.75;;;26.95;36.74
4981;BME280;2507;50.392;7.482;2023-04-22T08:13:28;99947.63;;;27.69;35.06
4981;BME280;2507;50.392;7.482;2023-04-22T08:15:53;99937.03;;;27.21;36.51
4981;BME280;2507;50.392;7.482;2023-04-22T08:18:18;99943.03;;;27.81;35.49
4981;BME280;2507;50.392;7.482;2023-04-22T08:20:44;99935.50;;;28.17;35.37
4981;BME280;2507;50.392;7.482;2023-04-22T08:23:10;99926.03;;;28.71;33.34
4981;BME280;2507;50.392;7.482;2023-04-22T08:25:36;99924.69;;;28.85;33.41
4981;BME280;2507;50.392;7.482;2023-04-22T08:28:01;99920.13;;;28.18;34.91
4981;BME280;2507;50.392;7.482;2023-04-22T08:30:27;99918.84;;;28.49;32.90
4981;BME280;2507;50.392;7.482;2023-04-22T08:32:52;99916.75;;;28.39;30.98
4981;BME280;2507;50.392;7.482;2023-04-22T08:35:18;99912.69;;;27.74;31.44
4981;BME280;2507;50.392;7.482;2023-04-22T08:37:43;99911.53;;;26.82;32.46
4981;BME280;2507;50.392;7.482;2023-04-22T08:40:09;99911.34;;;26.36;33.21
4981;BME280;2507;50.392;7.482;2023-04-22T08:42:34;99901.19;;;26.38;32.32
4981;BME280;2507;50.392;7.482;2023-04-22T08:45:04;99900.63;;;26.18;32.40
4981;BME280;2507;50.392;7.482;2023-04-22T08:47:30;99909.34;;;25.77;33.56
4981;BME280;2507;50.392;7.482;2023-04-22T08:49:57;99908.50;;;25.59;33.37
4981;BME280;2507;50.392;7.482;2023-04-22T08:52:23;99903.91;;;25.16;34.19
4981;BME280;2507;50.392;7.482;2023-04-22T08:54:48;99884.72;;;24.88;34.42
4981;BME280;2507;50.392;7.482;2023-04-22T08:57:14;99911.22;;;24.41;34.22
4981;BME280;2507;50.392;7.482;2023-04-22T08:59:40;99904.13;;;24.15;34.03
4981;BME280;2507;50.392;7.482;2023-04-22T09:02:06;99903.19;;;23.77;34.25
4981;BME280;2507;50.392;7.482;2023-04-22T09:04:36;99883.50;;;23.32;34.28
4981;BME280;2507;50.392;7.482;2023-04-22T09:07:01;99880.38;;;23.22;34.63
4981;BME280;2507;50.392;7.482;2023-04-22T09:09:28;99887.63;;;23.41;34.44
4981;BME280;2507;50.392;7.482;2023-04-22T09:11:55;99892.16;;;23.34;35.21
4981;BME280;2507;50.392;7.482;2023-04-22T09:14:22;99880.41;;;23.48;34.75
4981;BME280;2507;50.392;7.482;2023-04-22T09:16:48;99875.88;;;23.49;34.31
4981;BME280;2507;50.392;7.482;2023-04-22T09:19:14;99870.69;;;23.54;34.86
4981;BME280;2507;50.392;7.482;2023-04-22T09:21:40;99866.72;;;23.69;34.35
4981;BME280;2507;50.392;7.482;2023-04-22T09:24:09;99890.56;;;23.97;34.77
4981;BME280;2507;50.392;7.482;2023-04-22T09:26:38;99870.13;;;24.09;33.72
4981;BME280;2507;50.392;7.482;2023-04-22T09:29:05;99868.03;;;24.11;33.75
4981;BME280;2507;50.392;7.482;2023-04-22T09:31:34;99861.88;;;24.10;33.74
4981;BME280;2507;50.392;7.482;2023-04-22T09:34:00;99873.88;;;24.01;33.79
4981;BME280;2507;50.392;7.482;2023-04-22T09:36:29;99867.78;;;24.19;33.26
4981;BME280;2507;50.392;7.482;2023-04-22T09:38:57;99859.31;;;24.22;33.51
4981;BME280;2507;50.392;7.482;2023-04-22T09:41:30;99878.91;;;24.29;33.78
4981;BME280;2507;50.392;7.482;2023-04-22T09:43:59;99864.69;;;24.53;32.95
4981;BME280;2507;50.392;7.482;2023-04-22T09:46:27;99861.59;;;24.18;33.19
4981;BME280;2507;50.392;7.482;2023-04-22T09:48:57;99863.75;;;24.03;33.76
4981;BME280;2507;50.392;7.482;2023-04-22T09:51:23;99870.34;;;24.01;33.81
4981;BME280;2507;50.392;7.482;2023-04-22T09:54:05;99865.66;;;23.83;33.66
4981;BME280;2507;50.392;7.482;2023-04-22T09:56:52;99871.59;;;23.92;34.34
4981;BME280;2507;50.392;7.482;2023-04-22T09:59:25;99877.34;;;24.08;33.75
4981;BME280;2507;50.392;7.482;2023-04-22T10:01:54;99872.44;;;23.86;33.52
4981;BME280;2507;50.392;7.482;2023-04-22T10:04:20;99866.91;;;23.81;33.98
4981;BME280;2507;50.392;7.482;2023-04-22T10:06:47;99865.00;;;24.01;34.26
4981;BME280;2507;50.392;7.482;2023-04-22T10:09:14;99865.28;;;24.24;33.94
4981;BME280;2507;50.392;7.482;2023-04-22T10:11:42;99871.63;;;24.74;34.25
4981;BME280;2507;50.392;7.482;2023-04-22T10:14:07;99862.53;;;24.99;32.98
4981;BME280;2507;50.392;7.482;2023-04-22T10:16:36;99858.06;;;25.11;33.47
4981;BME280;2507;50.392;7.482;2023-04-22T10:19:05;99861.78;;;25.35;32.96
4981;BME280;2507;50.392;7.482;2023-04-22T10:21:31;99849.59;;;25.14;33.41
4981;BME280;2507;50.392;7.482;2023-04-22T10:23:58;99844.81;;;25.16;33.44
4981;BME280;2507;50.392;7.482;2023-04-22T10:27:03;99838.66;;;25.09;33.65
4981;BME280;2507;50.392;7.482;2023-04-22T10:29:38;99846.91;;;24.90;34.00
4981;BME280;2507;50.392;7.482;2023-04-22T10:34:30;99848.69;;;24.71;33.47
4981;BME280;2507;50.392;7.482;2023-04-22T10:37:08;99849.81;;;24.57;33.76
4981;BME280;2507;50.392;7.482;2023-04-22T10:39:35;99860.94;;;24.61;34.60
4981;BME280;2507;50.392;7.482;2023-04-22T10:42:04;99860.50;;;24.95;33.33
4981;BME280;2507;50.392;7.482;2023-04-22T10:44:50;99852.31;;;25.08;34.37
4981;BME280;2507;50.392;7.482;2023-04-22T10:47:23;99848.84;;;25.25;33.82
4981;BME280;2507;50.392;7.482;2023-04-22T10:49:49;99848.34;;;25.60;33.49
4981;BME280;2507;50.392;7.482;2023-04-22T10:52:27;99840.47;;;25.94;32.88
4981;BME280;2507;50.392;7.482;2023-04-22T10:57:19;99841.25;;;25.65;32.26
4981;BME280;2507;50.392;7.482;2023-04-22T11:02:15;99843.38;;;25.57;32.71
4981;BME280;2507;50.392;7.482;2023-04-22T11:04:41;99831.47;;;25.53;32.77
4981;BME280;2507;50.392;7.482;2023-04-22T11:09:43;99837.22;;;25.32;32.46
4981;BME280;2507;50.392;7.482;2023-04-22T11:17:31;99844.22;;;24.59;33.97
4981;BME280;2507;50.392;7.482;2023-04-22T11:19:57;99832.47;;;24.91;33.26
4981;BME280;2507;50.392;7.482;2023-04-22T11:22:23;99832.56;;;24.78;33.76
4981;BME280;2507;50.392;7.482;2023-04-22T11:24:54;99834.81;;;24.81;33.91
4981;BME280;2507;50.392;7.482;2023-04-22T11:27:19;99838.25;;;25.12;33.95
4981;BME280;2507;50.392;7.482;2023-04-22T11:32:27;99832.47;;;26.06;33.71
4981;BME280;2507;50.392;7.482;2023-04-22T11:34:53;99842.75;;;26.27;31.57
4981;BME280;2507;50.392;7.482;2023-04-22T11:37:19;99824.91;;;26.14;33.22
4981;BME280;2507;50.392;7.482;2023-04-22T11:39:44;99828.28;;;26.10;33.78
4981;BME280;2507;50.392;7.482;2023-04-22T11:42:11;99822.25;;;26.26;32.88
4981;BME280;2507;50.392;7.482;2023-04-22T11:44:37;99819.31;;;26.16;32.19
4981;BME280;2507;50.392;7.482;2023-04-22T11:47:03;99817.69;;;26.27;32.66
4981;BME280;2507;50.392;7.482;2023-04-22T11:49:28;99819.97;;;26.11;32.39
4981;BME280;2507;50.392;7.482;2023-04-22T11:51:57;99826.84;;;26.07;32.95
4981;BME280;2507;50.392;7.482;2023-04-22T11:54:36;99820.06;;;25.87;32.75
4981;BME280;2507;50.392;7.482;2023-04-22T11:57:06;99820.09;;;25.69;33.62
4981;BME280;2507;50.392;7.482;2023-04-22T11:59:32;99807.84;;;25.55;33.80
4981;BME280;2507;50.392;7.482;2023-04-22T12:01:58;99812.56;;;25.59;34.95
4981;BME280;2507;50.392;7.482;2023-04-22T12:04:23;99798.59;;;25.98;34.83
4981;BME280;2507;50.392;7.482;2023-04-22T12:06:50;99815.13;;;26.20;32.91
4981;BME280;2507;50.392;7.482;2023-04-22T12:09:16;99808.09;;;26.01;33.77
4981;BME280;2507;50.392;7.482;2023-04-22T12:11:43;99817.88;;;26.43;32.87
4981;BME280;2507;50.392;7.482;2023-04-22T12:14:10;99812.09;;;26.69;33.33
4981;BME280;2507;50.392;7.482;2023-04-22T12:16:40;99816.56;;;26.46;32.57
4981;BME280;2507;50.392;7.482;2023-04-22T12:19:05;99812.91;;;26.40;33.02
4981;BME280;2507;50.392;7.482;2023-04-22T12:21:31;99829.88;;;26.29;33.17
4981;BME280;2507;50.392;7.482;2023-04-22T12:23:57;99826.91;;;26.01;33.24
4981;BME280;2507;50.392;7.482;2023-04-22T12:26:24;99821.69;;;25.58;34.17
4981;BME280;2507;50.392;7.482;2023-04-22T12:28:51;99828.16;;;25.51;34.60
4981;BME280;2507;50.392;7.482;2023-04-22T12:31:17;99833.59;;;25.44;34.95
4981;BME280;2507;50.392;7.482;2023-04-22T12:33:44;99831.06;;;25.06;35.48
4981;BME280;2507;50.392;7.482;2023-04-22T12:36:09;99838.06;;;24.20;37.27
4981;BME280;2507;50.392;7.482;2023-04-22T12:38:35;99840.44;;;24.04;38.10
4981;BME280;2507;50.392;7.482;2023-04-22T12:41:01;99838.59;;;23.98;39.22
4981;BME280;2507;50.392;7.482;2023-04-22T12:43:26;99836.56;;;23.87;38.58
4981;BME280;2507;50.392;7.482;2023-04-22T12:45:52;99838.31;;;23.62;39.02
4981;BME280;2507;50.392;7.482;2023-04-22T12:48:17;99839.81;;;23.45;39.28
4981;BME280;2507;50.392;7.482;2023-04-22T12:50:43;99835.09;;;23.20;39.53
4981;BME280;2507;50.392;7.482;2023-04-22T12:53:08;99849.72;;;23.05;40.11
4981;BME280;2507;50.392;7.482;2023-04-22T12:55:34;99849.94;;;23.03;40.41
4981;BME280;2507;50.392;7.482;2023-04-22T12:57:59;99848.91;;;23.04;40.23
4981;BME280;2507;50.392;7.482;2023-04-22T13:00:25;99853.63;;;23.02;40.43
4981;BME280;2507;50.392;7.482;2023-04-22T13:02:50;99855.28;;;22.97;40.88
4981;BME280;2507;50.392;7.482;2023-04-22T13:05:17;99856.09;;;23.04;40.43
4981;BME280;2507;50.392;7.482;2023-04-22T13:07:43;99857.75;;;22.92;41.09
4981;BME280;2507;50.392;7.482;2023-04-22T13:10:13;99858.38;;;22.74;41.12
4981;BME280;2507;50.392;7.482;2023-04-22T13:12:39;99855.69;;;22.81;41.54
4981;BME280;2507;50.392;7.482;2023-04-22T13:15:05;99857.13;;;22.77;41.58
4981;BME280;2507;50.392;7.482;2023-04-22T13:17:33;99853.03;;;22.74;41.94
4981;BME280;2507;50.392;7.482;2023-04-22T13:19:58;99864.75;;;22.73;41.57
4981;BME280;2507;50.392;7.482;2023-04-22T13:22:24;99870.50;;;22.64;42.26
4981;BME280;2507;50.392;7.482;2023-04-22T13:24:49;99866.75;;;22.52;42.13
4981;BME280;2507;50.392;7.482;2023-04-22T13:27:15;99872.53;;;22.49;41.91